sensor_id;sensor_type;location;lat;lon;timestamp;temperature;humidity
16732;DHT22;8484;50.904;9.192;2023-05-07T00:00:34;13.80;99.90
16732;DHT22;8484;50.904;9.192;2023-05-07T00:03:03;13.70;99.90
16732;DHT22;8484;50.904;9.192;2023-05-07T00:05:30;13.70;99.90
16732;DHT22;8484;50.904;9.192;2023-05-07T00:07:57;13.60;99.90
16732;DHT22;8484;50.904;9.192;2023-05-07T00:10:24;13.60;99.90
16732;DHT22;8484;50.904;9.192;2023-05-07T00:12:51;13.70;99.90
16732;DHT22;8484;50.904;9.192;2023-05-07T00:15:18;13.60;99.90
16732;DHT22;8484;50.904;9.192;2023-05-07T00:17:45;13.70;99.90
16732;DHT22;8484;50.904;9.192;2023-05-07T00:20:13;13.80;99.90
16732;DHT22;8484;50.904;9.192;2023-05-07T00:22:40;13.80;99.90
16732;DHT22;8484;50.904;9.192;2023-05-07T00:25:07;13.90;99.90
16732;DHT22;8484;50.904;9.192;2023-05-07T00:27:35;13.90;99.90
16732;DHT22;8484;50.904;9.192;2023-05-07T00:30:02;13.90;99.90
16732;DHT22;8484;50.904;9.192;2023-05-07T00:32:29;13.80;99.90
16732;DHT22;8484;50.904;9.192;2023-05-07T00:34:56;13.80;99.90
16732;DHT22;8484;50.904;9.192;2023-05-07T00:37:24;13.80;99.90
16732;DHT22;8484;50.904;9.192;2023-05-07T00:39:51;13.80;99.90
16732;DHT22;8484;50.904;9.192;2023-05-07T00:42:17;13.70;99.90
16732;DHT22;8484;50.904;9.192;2023-05-07T00:44:44;13.70;99.90
16732;DHT22;8484;50.904;9.192;2023-05-07T00:47:12;13.70;99.90
16732;DHT22;8484;50.904;9.192;2023-05-07T00:49:41;13.60;99.90
16732;DHT22;8484;50.904;9.192;2023-05-07T00:52:10;13.70;99.90
16732;DHT22;8484;50.904;9.192;2023-05-07T00:54:40;13.60;99.90
16732;DHT22;8484;50.904;9.192;2023-05-07T00:57:09;13.50;99.90
16732;DHT22;8484;50.904;9.192;2023-05-07T00:59:36;13.60;99.90
16732;DHT22;8484;50.904;9.192;2023-05-07T01:02:03;13.60;99.90
16732;DHT22;8484;50.904;9.192;2023-05-07T01:04:30;13.60;99.90
16732;DHT22;8484;50.904;9.192;2023-05-07T01:06:58;13.70;99.90
16732;DHT22;8484;50.904;9.192;2023-05-07T01:09:28;13.50;99.90
16732;DHT22;8484;50.904;9.192;2023-05-07T01:11:57;13.50;99.90
16732;DHT22;8484;50.904;9.192;2023-05-07T01:14:25;13.50;99.90
16732;DHT22;8484;50.904;9.192;2023-05-07T01:16:52;13.50;99.90
16732;DHT22;8484;50.904;9.192;2023-05-07T01:19:20;13.50;99.90
16732;DHT22;8484;50.904;9.192;2023-05-07T01:21:48;13.50;99.90
16732;DHT22;8484;50.904;9.192;2023-05-07T01:24:16;13.40;99.90
16732;DHT22;8484;50.904;9.192;2023-05-07T01:26:44;13.40;99.90
16732;DHT22;8484;50.904;9.192;2023-05-07T01:29:11;13.40;99.90
16732;DHT22;8484;50.904;9.192;2023-05-07T01:31:39;13.40;99.90
16732;DHT22;8484;50.904;9.192;2023-05-07T01:34:30;13.40;99.90
16732;DHT22;8484;50.904;9.192;2023-05-07T01:36:58;13.40;99.90
16732;DHT22;8484;50.904;9.192;2023-05-07T01:39:28;13.40;99.90
16732;DHT22;8484;50.904;9.192;2023-05-07T01:41:56;13.40;99.90
16732;DHT22;8484;50.904;9.192;2023-05-07T01:44:23;13.30;99.90
16732;DHT22;8484;50.904;9.192;2023-05-07T01:46:50;13.30;99.90
16732;DHT22;8484;50.904;9.192;2023-05-07T01:49:17;13.30;99.90
16732;DHT22;8484;50.904;9.192;2023-05-07T01:51:44;13.30;99.90
16732;DHT22;8484;50.904;9.192;2023-05-07T01:54:11;13.30;99.90
16732;DHT22;8484;50.904;9.192;2023-05-07T01:56:39;13.20;99.90
16732;DHT22;8484;50.904;9.192;2023-05-07T01:59:06;13.20;99.90
16732;DHT22;8484;50.904;9.192;2023-05-07T02:01:33;13.20;99.90
16732;DHT22;8484;50.904;9.192;2023-05-07T02:04:00;13.20;99.90
16732;DHT22;8484;50.904;9.192;2023-05-07T02:06:26;13.10;99.90
16732;DHT22;8484;50.904;9.192;2023-05-07T02:08:53;13.10;99.90
16732;DHT22;8484;50.904;9.192;2023-05-07T02:11:20;13.10;99.90
16732;DHT22;8484;50.904;9.192;2023-05-07T02:13:48;13.10;99.90
16732;DHT22;8484;50.904;9.192;2023-05-07T02:16:15;13.00;99.90
16732;DHT22;8484;50.904;9.192;2023-05-07T02:18:42;13.10;99.90
16732;DHT22;8484;50.904;9.192;2023-05-07T02:21:08;13.10;99.90
16732;DHT22;8484;50.904;9.192;2023-05-07T02:23:35;13.10;99.90
16732;DHT22;8484;50.904;9.192;2023-05-07T02:26:03;13.10;99.90
16732;DHT22;8484;50.904;9.192;2023-05-07T02:28:30;13.10;99.90
16732;DHT22;8484;50.904;9.192;2023-05-07T02:30:59;13.00;99.90
16732;DHT22;8484;50.904;9.192;2023-05-07T02:33:26;13.00;99.90
16732;DHT22;8484;50.904;9.192;2023-05-07T02:35:53;13.00;99.90
16732;DHT22;8484;50.904;9.192;2023-05-07T02:38:19;13.00;99.90
16732;DHT22;8484;50.904;9.192;2023-05-07T02:40:46;12.90;99.90
16732;DHT22;8484;50.904;9.192;2023-05-07T02:43:13;12.90;99.90
16732;DHT22;8484;50.904;9.192;2023-05-07T02:45:40;12.90;99.90
16732;DHT22;8484;50.904;9.192;2023-05-07T02:48:10;13.00;99.90
16732;DHT22;8484;50.904;9.192;2023-05-07T02:50:37;13.00;99.90
16732;DHT22;8484;50.904;9.192;2023-05-07T02:53:03;13.00;99.90
16732;DHT22;8484;50.904;9.192;2023-05-07T02:55:30;12.90;99.90
16732;DHT22;8484;50.904;9.192;2023-05-07T02:57:57;12.90;99.90
16732;DHT22;8484;50.904;9.192;2023-05-07T03:00:24;12.90;99.90
16732;DHT22;8484;50.904;9.192;2023-05-07T03:02:51;12.80;99.90
16732;DHT22;8484;50.904;9.192;2023-05-07T03:05:20;12.90;99.90
16732;DHT22;8484;50.904;9.192;2023-05-07T03:07:46;12.90;99.90
16732;DHT22;8484;50.904;9.192;2023-05-07T03:10:13;12.90;99.90
16732;DHT22;8484;50.904;9.192;2023-05-07T03:12:40;12.80;99.90
16732;DHT22;8484;50.904;9.192;2023-05-07T03:15:08;12.70;99.90
16732;DHT22;8484;50.904;9.192;2023-05-07T03:17:35;12.60;99.90
16732;DHT22;8484;50.904;9.192;2023-05-07T03:20:03;12.60;99.90
16732;DHT22;8484;50.904;9.192;2023-05-07T03:22:31;12.60;99.90
16732;DHT22;8484;50.904;9.192;2023-05-07T03:24:58;12.60;99.90
16732;DHT22;8484;50.904;9.192;2023-05-07T03:27:25;12.50;99.90
16732;DHT22;8484;50.904;9.192;2023-05-07T03:29:52;12.60;99.90
16732;DHT22;8484;50.904;9.192;2023-05-07T03:32:19;12.70;99.90
16732;DHT22;8484;50.904;9.192;2023-05-07T03:34:46;12.60;99.90
16732;DHT22;8484;50.904;9.192;2023-05-07T03:37:13;12.60;99.90
16732;DHT22;8484;50.904;9.192;2023-05-07T03:39:41;12.60;99.90
16732;DHT22;8484;50.904;9.192;2023-05-07T03:42:08;12.60;99.90
16732;DHT22;8484;50.904;9.192;2023-05-07T03:44:34;12.60;99.90
16732;DHT22;8484;50.904;9.192;2023-05-07T03:47:02;12.60;99.90
16732;DHT22;8484;50.904;9.192;2023-05-07T03:49:29;12.50;99.90
16732;DHT22;8484;50.904;9.192;2023-05-07T03:51:56;12.50;99.90
16732;DHT22;8484;50.904;9.192;2023-05-07T03:54:23;12.40;99.90
16732;DHT22;8484;50.904;9.192;2023-05-07T03:56:51;12.40;99.90
16732;DHT22;8484;50.904;9.192;2023-05-07T03:59:18;12.30;99.90
16732;DHT22;8484;50.904;9.192;2023-05-07T04:01:44;12.30;99.90
16732;DHT22;8484;50.904;9.192;2023-05-07T04:04:11;12.30;99.90
16732;DHT22;8484;50.904;9.192;2023-05-07T04:06:38;12.40;99.90
16732;DHT22;8484;50.904;9.192;2023-05-07T04:09:05;12.40;99.90
16732;DHT22;8484;50.904;9.192;2023-05-07T04:11:32;12.50;99.90
16732;DHT22;8484;50.904;9.192;2023-05-07T04:14:00;12.50;99.90
16732;DHT22;8484;50.904;9.192;2023-05-07T04:16:29;12.50;99.90
16732;DHT22;8484;50.904;9.192;2023-05-07T04:18:55;12.50;99.90
16732;DHT22;8484;50.904;9.192;2023-05-07T04:21:22;12.50;99.90
16732;DHT22;8484;50.904;9.192;2023-05-07T04:23:49;12.50;99.90
16732;DHT22;8484;50.904;9.192;2023-05-07T04:26:16;12.50;99.90
16732;DHT22;8484;50.904;9.192;2023-05-07T04:28:43;12.40;99.90
16732;DHT22;8484;50.904;9.192;2023-05-07T04:31:11;12.50;99.90
16732;DHT22;8484;50.904;9.192;2023-05-07T04:33:38;12.50;99.90
16732;DHT22;8484;50.904;9.192;2023-05-07T04:36:05;12.50;99.90
16732;DHT22;8484;50.904;9.192;2023-05-07T04:38:32;12.50;99.90
16732;DHT22;8484;50.904;9.192;2023-05-07T04:41:03;12.40;99.90
16732;DHT22;8484;50.904;9.192;2023-05-07T04:43:30;12.40;99.90
16732;DHT22;8484;50.904;9.192;2023-05-07T04:45:57;12.40;99.90
16732;DHT22;8484;50.904;9.192;2023-05-07T04:48:27;12.40;99.90
16732;DHT22;8484;50.904;9.192;2023-05-07T04:50:54;12.40;99.90
16732;DHT22;8484;50.904;9.192;2023-05-07T04:53:21;12.50;99.90
16732;DHT22;8484;50.904;9.192;2023-05-07T04:55:54;12.50;99.90
16732;DHT22;8484;50.904;9.192;2023-05-07T04:58:21;12.60;99.90
16732;DHT22;8484;50.904;9.192;2023-05-07T05:00:48;12.70;99.90
16732;DHT22;8484;50.904;9.192;2023-05-07T05:03:15;12.70;99.90
16732;DHT22;8484;50.904;9.192;2023-05-07T05:05:43;12.70;99.90
16732;DHT22;8484;50.904;9.192;2023-05-07T05:08:10;12.80;99.90
16732;DHT22;8484;50.904;9.192;2023-05-07T05:10:37;12.80;99.90
16732;DHT22;8484;50.904;9.192;2023-05-07T05:13:03;12.80;99.90
16732;DHT22;8484;50.904;9.192;2023-05-07T05:15:30;12.80;99.90
16732;DHT22;8484;50.904;9.192;2023-05-07T05:17:57;12.70;99.90
16732;DHT22;8484;50.904;9.192;2023-05-07T05:20:24;12.80;99.90
16732;DHT22;8484;50.904;9.192;2023-05-07T05:22:52;12.70;99.90
16732;DHT22;8484;50.904;9.192;2023-05-07T05:25:19;12.90;99.90
16732;DHT22;8484;50.904;9.192;2023-05-07T05:27:45;12.80;99.90
16732;DHT22;8484;50.904;9.192;2023-05-07T05:30:13;12.80;99.90
16732;DHT22;8484;50.904;9.192;2023-05-07T05:32:39;12.90;99.90
16732;DHT22;8484;50.904;9.192;2023-05-07T05:35:07;13.00;99.90
16732;DHT22;8484;50.904;9.192;2023-05-07T05:37:34;12.90;99.90
16732;DHT22;8484;50.904;9.192;2023-05-07T05:40:03;13.00;99.90
16732;DHT22;8484;50.904;9.192;2023-05-07T05:42:30;13.10;99.90
16732;DHT22;8484;50.904;9.192;2023-05-07T05:44:56;13.10;99.90
16732;DHT22;8484;50.904;9.192;2023-05-07T05:47:23;13.20;99.90
16732;DHT22;8484;50.904;9.192;2023-05-07T05:49:50;13.30;99.90
16732;DHT22;8484;50.904;9.192;2023-05-07T05:52:17;13.30;99.90
16732;DHT22;8484;50.904;9.192;2023-05-07T05:54:44;13.50;99.90
16732;DHT22;8484;50.904;9.192;2023-05-07T05:57:12;13.50;99.90
16732;DHT22;8484;50.904;9.192;2023-05-07T05:59:39;13.70;99.90
16732;DHT22;8484;50.904;9.192;2023-05-07T06:02:06;13.70;99.90
16732;DHT22;8484;50.904;9.192;2023-05-07T06:04:33;13.70;99.90
16732;DHT22;8484;50.904;9.192;2023-05-07T06:07:00;13.80;99.90
16732;DHT22;8484;50.904;9.192;2023-05-07T06:09:27;13.70;99.90
16732;DHT22;8484;50.904;9.192;2023-05-07T06:11:54;13.70;99.90
16732;DHT22;8484;50.904;9.192;2023-05-07T06:14:22;13.80;99.90
16732;DHT22;8484;50.904;9.192;2023-05-07T06:16:49;14.10;99.90
16732;DHT22;8484;50.904;9.192;2023-05-07T06:19:16;14.00;99.90
16732;DHT22;8484;50.904;9.192;2023-05-07T06:21:48;14.20;99.90
16732;DHT22;8484;50.904;9.192;2023-05-07T06:24:15;14.20;99.90
16732;DHT22;8484;50.904;9.192;2023-05-07T06:26:42;14.40;99.90
16732;DHT22;8484;50.904;9.192;2023-05-07T06:29:09;14.40;99.90
16732;DHT22;8484;50.904;9.192;2023-05-07T06:31:37;14.50;99.90
16732;DHT22;8484;50.904;9.192;2023-05-07T06:34:04;14.70;99.90
16732;DHT22;8484;50.904;9.192;2023-05-07T06:36:31;14.60;99.90
16732;DHT22;8484;50.904;9.192;2023-05-07T06:38:57;14.80;99.90
16732;DHT22;8484;50.904;9.192;2023-05-07T06:41:24;15.00;99.90
16732;DHT22;8484;50.904;9.192;2023-05-07T06:43:52;14.70;99.90
16732;DHT22;8484;50.904;9.192;2023-05-07T06:46:19;14.80;99.90
16732;DHT22;8484;50.904;9.192;2023-05-07T06:48:47;15.00;99.90
16732;DHT22;8484;50.904;9.192;2023-05-07T06:51:14;14.90;99.90
16732;DHT22;8484;50.904;9.192;2023-05-07T06:53:41;14.90;99.90
16732;DHT22;8484;50.904;9.192;2023-05-07T06:56:08;14.90;99.90
16732;DHT22;8484;50.904;9.192;2023-05-07T06:58:35;15.00;99.90
16732;DHT22;8484;50.904;9.192;2023-05-07T07:01:02;15.10;99.90
16732;DHT22;8484;50.904;9.192;2023-05-07T07:03:31;15.10;99.90
16732;DHT22;8484;50.904;9.192;2023-05-07T07:06:01;15.30;99.90
16732;DHT22;8484;50.904;9.192;2023-05-07T07:08:28;15.30;99.90
16732;DHT22;8484;50.904;9.192;2023-05-07T07:10:55;15.40;99.90
16732;DHT22;8484;50.904;9.192;2023-05-07T07:13:22;15.80;99.90
16732;DHT22;8484;50.904;9.192;2023-05-07T07:15:51;15.80;99.90
16732;DHT22;8484;50.904;9.192;2023-05-07T07:18:19;15.70;99.90
16732;DHT22;8484;50.904;9.192;2023-05-07T07:20:46;15.30;99.90
16732;DHT22;8484;50.904;9.192;2023-05-07T07:23:14;15.00;99.90
16732;DHT22;8484;50.904;9.192;2023-05-07T07:25:41;15.20;99.90
16732;DHT22;8484;50.904;9.192;2023-05-07T07:28:08;15.50;99.90
16732;DHT22;8484;50.904;9.192;2023-05-07T07:30:36;15.70;99.90
16732;DHT22;8484;50.904;9.192;2023-05-07T07:33:03;15.90;99.90
16732;DHT22;8484;50.904;9.192;2023-05-07T07:35:30;16.10;99.90
16732;DHT22;8484;50.904;9.192;2023-05-07T07:37:57;16.10;99.90
16732;DHT22;8484;50.904;9.192;2023-05-07T07:40:26;16.00;99.90
16732;DHT22;8484;50.904;9.192;2023-05-07T07:42:54;16.00;99.90
16732;DHT22;8484;50.904;9.192;2023-05-07T07:45:21;16.00;99.90
16732;DHT22;8484;50.904;9.192;2023-05-07T07:47:47;16.10;99.90
16732;DHT22;8484;50.904;9.192;2023-05-07T07:50:14;16.40;99.90
16732;DHT22;8484;50.904;9.192;2023-05-07T07:52:41;16.60;99.90
16732;DHT22;8484;50.904;9.192;2023-05-07T07:55:09;16.50;99.90
16732;DHT22;8484;50.904;9.192;2023-05-07T07:57:37;16.70;99.90
16732;DHT22;8484;50.904;9.192;2023-05-07T08:00:05;16.60;99.90
16732;DHT22;8484;50.904;9.192;2023-05-07T08:02:33;16.90;99.90
16732;DHT22;8484;50.904;9.192;2023-05-07T08:05:00;17.50;99.90
16732;DHT22;8484;50.904;9.192;2023-05-07T08:07:27;17.50;99.90
16732;DHT22;8484;50.904;9.192;2023-05-07T08:09:53;17.90;99.90
16732;DHT22;8484;50.904;9.192;2023-05-07T08:12:20;17.30;99.90
16732;DHT22;8484;50.904;9.192;2023-05-07T08:14:49;17.10;99.90
16732;DHT22;8484;50.904;9.192;2023-05-07T08:17:15;17.50;99.90
16732;DHT22;8484;50.904;9.192;2023-05-07T08:19:42;17.70;99.90
16732;DHT22;8484;50.904;9.192;2023-05-07T08:22:10;18.10;99.90
16732;DHT22;8484;50.904;9.192;2023-05-07T08:24:37;18.10;99.90
16732;DHT22;8484;50.904;9.192;2023-05-07T08:27:04;18.00;99.90
16732;DHT22;8484;50.904;9.192;2023-05-07T08:29:31;18.40;99.90
16732;DHT22;8484;50.904;9.192;2023-05-07T08:31:59;17.60;99.90
16732;DHT22;8484;50.904;9.192;2023-05-07T08:34:27;17.40;99.90
16732;DHT22;8484;50.904;9.192;2023-05-07T08:36:54;18.00;99.90
16732;DHT22;8484;50.904;9.192;2023-05-07T08:39:21;18.60;99.90
16732;DHT22;8484;50.904;9.192;2023-05-07T08:41:48;18.40;99.90
16732;DHT22;8484;50.904;9.192;2023-05-07T08:44:22;18.40;99.90
16732;DHT22;8484;50.904;9.192;2023-05-07T08:46:55;18.30;99.90
16732;DHT22;8484;50.904;9.192;2023-05-07T08:49:34;18.50;99.90
16732;DHT22;8484;50.904;9.192;2023-05-07T08:52:07;18.20;99.90
16732;DHT22;8484;50.904;9.192;2023-05-07T08:54:44;18.40;99.90
16732;DHT22;8484;50.904;9.192;2023-05-07T08:57:13;18.50;99.90
16732;DHT22;8484;50.904;9.192;2023-05-07T08:59:45;18.70;99.90
16732;DHT22;8484;50.904;9.192;2023-05-07T09:02:12;18.60;99.90
16732;DHT22;8484;50.904;9.192;2023-05-07T09:04:40;18.30;99.90
16732;DHT22;8484;50.904;9.192;2023-05-07T09:07:07;18.20;99.90
16732;DHT22;8484;50.904;9.192;2023-05-07T09:09:34;17.50;99.90
16732;DHT22;8484;50.904;9.192;2023-05-07T09:12:01;17.30;99.90
16732;DHT22;8484;50.904;9.192;2023-05-07T09:14:29;18.60;99.90
16732;DHT22;8484;50.904;9.192;2023-05-07T09:16:56;19.90;99.90
16732;DHT22;8484;50.904;9.192;2023-05-07T09:19:24;20.30;99.90
16732;DHT22;8484;50.904;9.192;2023-05-07T09:21:59;20.40;99.90
16732;DHT22;8484;50.904;9.192;2023-05-07T09:24:26;20.50;99.90
16732;DHT22;8484;50.904;9.192;2023-05-07T09:26:54;20.70;99.90
16732;DHT22;8484;50.904;9.192;2023-05-07T09:29:21;21.30;99.90
16732;DHT22;8484;50.904;9.192;2023-05-07T09:31:48;21.60;99.90
16732;DHT22;8484;50.904;9.192;2023-05-07T09:34:16;21.50;99.90
16732;DHT22;8484;50.904;9.192;2023-05-07T09:36:43;21.80;99.90
16732;DHT22;8484;50.904;9.192;2023-05-07T09:39:12;22.40;99.90
16732;DHT22;8484;50.904;9.192;2023-05-07T09:41:49;21.50;99.90
16732;DHT22;8484;50.904;9.192;2023-05-07T09:44:16;21.90;99.90
16732;DHT22;8484;50.904;9.192;2023-05-07T09:46:44;22.90;99.90
16732;DHT22;8484;50.904;9.192;2023-05-07T09:49:18;23.00;99.90
16732;DHT22;8484;50.904;9.192;2023-05-07T09:51:49;22.70;99.90
16732;DHT22;8484;50.904;9.192;2023-05-07T09:54:18;22.60;99.90
16732;DHT22;8484;50.904;9.192;2023-05-07T09:56:45;22.70;99.90
16732;DHT22;8484;50.904;9.192;2023-05-07T09:59:15;22.90;99.90
16732;DHT22;8484;50.904;9.192;2023-05-07T10:01:43;21.60;99.90
16732;DHT22;8484;50.904;9.192;2023-05-07T10:04:11;21.10;99.90
16732;DHT22;8484;50.904;9.192;2023-05-07T10:06:39;20.30;99.90
16732;DHT22;8484;50.904;9.192;2023-05-07T10:09:07;20.60;99.90
16732;DHT22;8484;50.904;9.192;2023-05-07T10:11:36;21.90;99.90
16732;DHT22;8484;50.904;9.192;2023-05-07T10:14:04;21.30;99.90
16732;DHT22;8484;50.904;9.192;2023-05-07T10:16:33;22.10;99.90
16732;DHT22;8484;50.904;9.192;2023-05-07T10:19:02;23.50;99.90
16732;DHT22;8484;50.904;9.192;2023-05-07T10:21:30;25.00;99.90
16732;DHT22;8484;50.904;9.192;2023-05-07T10:24:00;25.40;99.90
16732;DHT22;8484;50.904;9.192;2023-05-07T10:26:32;25.80;99.90
16732;DHT22;8484;50.904;9.192;2023-05-07T10:29:05;25.80;99.90
16732;DHT22;8484;50.904;9.192;2023-05-07T10:31:48;25.90;99.90
16732;DHT22;8484;50.904;9.192;2023-05-07T10:34:20;24.40;99.90
16732;DHT22;8484;50.904;9.192;2023-05-07T10:36:48;23.60;99.90
16732;DHT22;8484;50.904;9.192;2023-05-07T10:39:17;24.40;99.90
16732;DHT22;8484;50.904;9.192;2023-05-07T10:41:44;25.30;99.90
16732;DHT22;8484;50.904;9.192;2023-05-07T10:44:25;24.20;99.90
16732;DHT22;8484;50.904;9.192;2023-05-07T10:47:04;23.40;99.90
16732;DHT22;8484;50.904;9.192;2023-05-07T10:49:34;22.60;99.90
16732;DHT22;8484;50.904;9.192;2023-05-07T10:52:15;22.90;99.90
16732;DHT22;8484;50.904;9.192;2023-05-07T10:54:42;22.70;99.90
16732;DHT22;8484;50.904;9.192;2023-05-07T10:57:32;23.10;99.90
16732;DHT22;8484;50.904;9.192;2023-05-07T11:00:01;22.70;99.90
16732;DHT22;8484;50.904;9.192;2023-05-07T11:05:31;22.00;99.90
16732;DHT22;8484;50.904;9.192;2023-05-07T11:08:00;22.90;99.90
16732;DHT22;8484;50.904;9.192;2023-05-07T11:10:48;22.30;99.90
16732;DHT22;8484;50.904;9.192;2023-05-07T11:13:16;21.40;99.90
16732;DHT22;8484;50.904;9.192;2023-05-07T11:15:46;22.30;99.90
16732;DHT22;8484;50.904;9.192;2023-05-07T11:18:14;23.30;99.90
16732;DHT22;8484;50.904;9.192;2023-05-07T11:20:50;24.00;99.90
16732;DHT22;8484;50.904;9.192;2023-05-07T11:26:22;23.80;99.90
16732;DHT22;8484;50.904;9.192;2023-05-07T11:28:49;22.90;99.90
16732;DHT22;8484;50.904;9.192;2023-05-07T11:31:22;22.70;99.90
16732;DHT22;8484;50.904;9.192;2023-05-07T11:33:50;23.90;99.90
16732;DHT22;8484;50.904;9.192;2023-05-07T11:36:17;24.00;99.90
16732;DHT22;8484;50.904;9.192;2023-05-07T11:38:44;24.50;99.90
16732;DHT22;8484;50.904;9.192;2023-05-07T11:41:11;25.40;99.90
16732;DHT22;8484;50.904;9.192;2023-05-07T11:43:39;25.20;99.90
16732;DHT22;8484;50.904;9.192;2023-05-07T11:46:21;26.30;99.90
16732;DHT22;8484;50.904;9.192;2023-05-07T11:48:48;25.90;99.90
16732;DHT22;8484;50.904;9.192;2023-05-07T11:51:18;26.30;99.90
16732;DHT22;8484;50.904;9.192;2023-05-07T11:53:46;26.20;99.90
16732;DHT22;8484;50.904;9.192;2023-05-07T11:56:13;25.40;99.90
16732;DHT22;8484;50.904;9.192;2023-05-07T11:58:41;24.40;99.90
16732;DHT22;8484;50.904;9.192;2023-05-07T12:01:15;23.70;99.90
16732;DHT22;8484;50.904;9.192;2023-05-07T12:03:45;23.30;99.90
16732;DHT22;8484;50.904;9.192;2023-05-07T12:06:14;23.10;99.90
16732;DHT22;8484;50.904;9.192;2023-05-07T12:08:42;23.00;99.90
16732;DHT22;8484;50.904;9.192;2023-05-07T12:11:13;22.80;99.90
16732;DHT22;8484;50.904;9.192;2023-05-07T12:13:41;22.70;99.90
16732;DHT22;8484;50.904;9.192;2023-05-07T12:16:08;22.70;99.90
16732;DHT22;8484;50.904;9.192;2023-05-07T12:18:36;23.00;99.90
16732;DHT22;8484;50.904;9.192;2023-05-07T12:21:06;23.00;99.90
16732;DHT22;8484;50.904;9.192;2023-05-07T12:23:34;23.00;99.90
16732;DHT22;8484;50.904;9.192;2023-05-07T12:26:02;22.90;99.90
16732;DHT22;8484;50.904;9.192;2023-05-07T12:28:29;23.40;99.90
16732;DHT22;8484;50.904;9.192;2023-05-07T12:30:57;23.00;99.90
16732;DHT22;8484;50.904;9.192;2023-05-07T12:33:25;22.90;99.90
16732;DHT22;8484;50.904;9.192;2023-05-07T12:35:55;22.80;99.90
16732;DHT22;8484;50.904;9.192;2023-05-07T12:38:23;22.20;99.90
16732;DHT22;8484;50.904;9.192;2023-05-07T12:40:53;22.20;99.90
16732;DHT22;8484;50.904;9.192;2023-05-07T12:43:21;22.90;99.90
16732;DHT22;8484;50.904;9.192;2023-05-07T12:45:51;23.50;99.90
16732;DHT22;8484;50.904;9.192;2023-05-07T12:48:19;22.90;99.90
16732;DHT22;8484;50.904;9.192;2023-05-07T12:50:49;22.40;99.90
16732;DHT22;8484;50.904;9.192;2023-05-07T12:53:16;22.20;99.90
16732;DHT22;8484;50.904;9.192;2023-05-07T12:55:46;22.00;99.90
16732;DHT22;8484;50.904;9.192;2023-05-07T12:58:16;21.90;99.90
16732;DHT22;8484;50.904;9.192;2023-05-07T13:00:44;22.50;99.90
16732;DHT22;8484;50.904;9.192;2023-05-07T13:03:11;22.90;99.90
16732;DHT22;8484;50.904;9.192;2023-05-07T13:05:39;22.90;99.90
16732;DHT22;8484;50.904;9.192;2023-05-07T13:08:06;22.60;99.90
16732;DHT22;8484;50.904;9.192;2023-05-07T13:10:35;23.70;99.90
16732;DHT22;8484;50.904;9.192;2023-05-07T13:13:03;24.10;99.90
16732;DHT22;8484;50.904;9.192;2023-05-07T13:15:30;24.20;99.90
16732;DHT22;8484;50.904;9.192;2023-05-07T13:17:57;24.30;99.90
16732;DHT22;8484;50.904;9.192;2023-05-07T13:20:23;24.80;99.90
16732;DHT22;8484;50.904;9.192;2023-05-07T13:22:50;24.00;99.90
16732;DHT22;8484;50.904;9.192;2023-05-07T13:25:17;23.80;99.90
16732;DHT22;8484;50.904;9.192;2023-05-07T13:27:46;24.10;99.90
16732;DHT22;8484;50.904;9.192;2023-05-07T13:30:14;23.80;99.90
16732;DHT22;8484;50.904;9.192;2023-05-07T13:32:41;23.30;99.90
16732;DHT22;8484;50.904;9.192;2023-05-07T13:35:08;22.80;99.90
16732;DHT22;8484;50.904;9.192;2023-05-07T13:37:35;22.60;99.90
16732;DHT22;8484;50.904;9.192;2023-05-07T13:40:02;22.20;99.90
16732;DHT22;8484;50.904;9.192;2023-05-07T13:42:30;22.20;99.90
16732;DHT22;8484;50.904;9.192;2023-05-07T13:44:57;22.70;99.90
16732;DHT22;8484;50.904;9.192;2023-05-07T13:47:25;22.00;99.90
16732;DHT22;8484;50.904;9.192;2023-05-07T13:49:52;21.80;99.90
16732;DHT22;8484;50.904;9.192;2023-05-07T13:52:19;21.70;99.90
16732;DHT22;8484;50.904;9.192;2023-05-07T13:54:46;22.50;99.90
16732;DHT22;8484;50.904;9.192;2023-05-07T13:57:13;22.80;99.90
16732;DHT22;8484;50.904;9.192;2023-05-07T13:59:41;22.50;99.90
16732;DHT22;8484;50.904;9.192;2023-05-07T14:02:08;21.80;99.90
16732;DHT22;8484;50.904;9.192;2023-05-07T14:04:37;21.30;99.90
16732;DHT22;8484;50.904;9.192;2023-05-07T14:07:04;21.30;99.90
16732;DHT22;8484;50.904;9.192;2023-05-07T14:09:31;21.60;99.90
16732;DHT22;8484;50.904;9.192;2023-05-07T14:11:58;21.80;99.90
16732;DHT22;8484;50.904;9.192;2023-05-07T14:14:27;22.30;99.90
16732;DHT22;8484;50.904;9.192;2023-05-07T14:16:53;22.10;99.90
16732;DHT22;8484;50.904;9.192;2023-05-07T14:19:21;22.40;99.90
16732;DHT22;8484;50.904;9.192;2023-05-07T14:21:50;22.20;99.90
16732;DHT22;8484;50.904;9.192;2023-05-07T14:24:16;22.20;99.90
16732;DHT22;8484;50.904;9.192;2023-05-07T14:26:43;21.50;99.90
16732;DHT22;8484;50.904;9.192;2023-05-07T14:29:11;21.50;99.90
16732;DHT22;8484;50.904;9.192;2023-05-07T14:31:39;21.20;99.90
16732;DHT22;8484;50.904;9.192;2023-05-07T14:34:13;21.10;99.90
16732;DHT22;8484;50.904;9.192;2023-05-07T14:36:40;20.20;99.90
16732;DHT22;8484;50.904;9.192;2023-05-07T14:39:08;20.40;99.90
16732;DHT22;8484;50.904;9.192;2023-05-07T14:41:35;21.00;99.90
16732;DHT22;8484;50.904;9.192;2023-05-07T14:44:02;21.00;99.90
16732;DHT22;8484;50.904;9.192;2023-05-07T14:46:29;20.90;99.90
16732;DHT22;8484;50.904;9.192;2023-05-07T14:48:57;20.80;99.90
16732;DHT22;8484;50.904;9.192;2023-05-07T14:51:24;20.90;99.90
16732;DHT22;8484;50.904;9.192;2023-05-07T14:53:51;21.10;99.90
16732;DHT22;8484;50.904;9.192;2023-05-07T14:56:19;21.80;99.90
16732;DHT22;8484;50.904;9.192;2023-05-07T14:58:47;22.10;99.90
16732;DHT22;8484;50.904;9.192;2023-05-07T15:01:15;22.40;99.90
16732;DHT22;8484;50.904;9.192;2023-05-07T15:03:41;22.80;99.90
16732;DHT22;8484;50.904;9.192;2023-05-07T15:06:09;22.60;99.90
16732;DHT22;8484;50.904;9.192;2023-05-07T15:08:36;22.80;99.90
16732;DHT22;8484;50.904;9.192;2023-05-07T15:11:02;22.90;99.90
16732;DHT22;8484;50.904;9.192;2023-05-07T15:13:31;23.00;99.90
16732;DHT22;8484;50.904;9.192;2023-05-07T15:15:58;23.10;99.90
16732;DHT22;8484;50.904;9.192;2023-05-07T15:18:24;23.40;99.90
16732;DHT22;8484;50.904;9.192;2023-05-07T15:20:51;23.10;99.90
16732;DHT22;8484;50.904;9.192;2023-05-07T15:23:19;22.40;99.90
16732;DHT22;8484;50.904;9.192;2023-05-07T15:25:46;22.20;99.90
16732;DHT22;8484;50.904;9.192;2023-05-07T15:28:12;22.20;99.90
16732;DHT22;8484;50.904;9.192;2023-05-07T15:30:41;21.80;99.90
16732;DHT22;8484;50.904;9.192;2023-05-07T15:33:08;21.70;99.90
16732;DHT22;8484;50.904;9.192;2023-05-07T15:35:35;21.00;99.90
16732;DHT22;8484;50.904;9.192;2023-05-07T15:38:02;20.70;99.90
16732;DHT22;8484;50.904;9.192;2023-05-07T15:40:29;20.80;99.90
16732;DHT22;8484;50.904;9.192;2023-05-07T15:42:56;20.70;99.90
16732;DHT22;8484;50.904;9.192;2023-05-07T15:45:24;20.30;99.90
16732;DHT22;8484;50.904;9.192;2023-05-07T15:47:52;20.60;99.90
16732;DHT22;8484;50.904;9.192;2023-05-07T15:50:19;20.70;99.90
16732;DHT22;8484;50.904;9.192;2023-05-07T15:52:46;20.50;99.90
16732;DHT22;8484;50.904;9.192;2023-05-07T15:55:14;20.80;99.90